sensor_id;sensor_type;location;lat;lon;timestamp;temperature;humidity
36716;DHT22;22699;51.034;3.730;2022-08-20T00:00:51;19.20;99.90
36716;DHT22;22699;51.034;3.730;2022-08-20T00:03:27;19.30;99.90
36716;DHT22;22699;51.034;3.730;2022-08-20T00:09:21;19.40;99.90
36716;DHT22;22699;51.034;3.730;2022-08-20T00:15:10;19.30;99.90
36716;DHT22;22699;51.034;3.730;2022-08-20T00:17:39;19.20;99.90
36716;DHT22;22699;51.034;3.730;2022-08-20T00:20:11;19.30;99.90
36716;DHT22;22699;51.034;3.730;2022-08-20T00:22:52;19.10;99.90
36716;DHT22;22699;51.034;3.730;2022-08-20T00:25:29;19.00;99.90
36716;DHT22;22699;51.034;3.730;2022-08-20T00:27:56;18.90;99.90
36716;DHT22;22699;51.034;3.730;2022-08-20T00:30:23;18.90;99.90
36716;DHT22;22699;51.034;3.730;2022-08-20T00:32:52;18.90;99.90
36716;DHT22;22699;51.034;3.730;2022-08-20T00:35:20;19.00;99.90
36716;DHT22;22699;51.034;3.730;2022-08-20T00:41:13;18.90;99.90
36716;DHT22;22699;51.034;3.730;2022-08-20T00:46:34;18.70;99.90
36716;DHT22;22699;51.034;3.730;2022-08-20T00:49:02;18.80;99.90
36716;DHT22;22699;51.034;3.730;2022-08-20T00:55:02;18.80;99.90
36716;DHT22;22699;51.034;3.730;2022-08-20T00:57:40;18.70;99.90
36716;DHT22;22699;51.034;3.730;2022-08-20T01:00:28;18.70;99.90
36716;DHT22;22699;51.034;3.730;2022-08-20T01:02:54;18.80;99.90
36716;DHT22;22699;51.034;3.730;2022-08-20T01:05:30;18.80;99.90
36716;DHT22;22699;51.034;3.730;2022-08-20T01:07:57;18.70;99.90
36716;DHT22;22699;51.034;3.730;2022-08-20T01:10:33;18.70;99.90
36716;DHT22;22699;51.034;3.730;2022-08-20T01:14:21;18.60;99.90
36716;DHT22;22699;51.034;3.730;2022-08-20T01:17:42;18.60;99.90
36716;DHT22;22699;51.034;3.730;2022-08-20T01:20:22;18.80;99.90
36716;DHT22;22699;51.034;3.730;2022-08-20T01:26:49;18.60;99.90
36716;DHT22;22699;51.034;3.730;2022-08-20T01:36:27;18.30;99.90
36716;DHT22;22699;51.034;3.730;2022-08-20T01:39:37;18.30;99.90
36716;DHT22;22699;51.034;3.730;2022-08-20T01:43:12;18.30;99.90
36716;DHT22;22699;51.034;3.730;2022-08-20T01:49:53;18.20;99.90
36716;DHT22;22699;51.034;3.730;2022-08-20T01:56:27;18.20;99.90
36716;DHT22;22699;51.034;3.730;2022-08-20T02:00:22;18.10;99.90
36716;DHT22;22699;51.034;3.730;2022-08-20T02:14:06;17.90;99.90
36716;DHT22;22699;51.034;3.730;2022-08-20T02:16:42;17.80;99.90
36716;DHT22;22699;51.034;3.730;2022-08-20T02:19:13;17.80;99.90
36716;DHT22;22699;51.034;3.730;2022-08-20T02:25:38;17.80;99.90
36716;DHT22;22699;51.034;3.730;2022-08-20T02:28:52;17.70;99.90
36716;DHT22;22699;51.034;3.730;2022-08-20T02:34:54;17.60;99.90
36716;DHT22;22699;51.034;3.730;2022-08-20T02:44:12;17.50;99.90
36716;DHT22;22699;51.034;3.730;2022-08-20T02:50:37;17.40;99.90
36716;DHT22;22699;51.034;3.730;2022-08-20T02:53:26;17.40;99.90
36716;DHT22;22699;51.034;3.730;2022-08-20T02:59:49;17.40;99.90
36716;DHT22;22699;51.034;3.730;2022-08-20T03:02:59;17.40;99.90
36716;DHT22;22699;51.034;3.730;2022-08-20T03:09:33;17.50;99.90
36716;DHT22;22699;51.034;3.730;2022-08-20T03:12:37;17.40;99.90
36716;DHT22;22699;51.034;3.730;2022-08-20T03:15:46;17.30;99.90
36716;DHT22;22699;51.034;3.730;2022-08-20T03:18:24;17.20;99.90
36716;DHT22;22699;51.034;3.730;2022-08-20T03:21:00;17.20;99.90
36716;DHT22;22699;51.034;3.730;2022-08-20T03:23:28;17.20;99.90
36716;DHT22;22699;51.034;3.730;2022-08-20T03:25:53;17.20;99.90
36716;DHT22;22699;51.034;3.730;2022-08-20T03:28:25;17.20;99.90
36716;DHT22;22699;51.034;3.730;2022-08-20T03:31:04;17.30;99.90
36716;DHT22;22699;51.034;3.730;2022-08-20T03:33:36;17.30;99.90
36716;DHT22;22699;51.034;3.730;2022-08-20T03:36:06;17.30;99.90
36716;DHT22;22699;51.034;3.730;2022-08-20T03:38:32;17.30;99.90
36716;DHT22;22699;51.034;3.730;2022-08-20T03:41:03;17.20;99.90
36716;DHT22;22699;51.034;3.730;2022-08-20T03:43:46;17.20;99.90
36716;DHT22;22699;51.034;3.730;2022-08-20T03:46:20;17.20;99.90
36716;DHT22;22699;51.034;3.730;2022-08-20T03:48:58;17.20;99.90
36716;DHT22;22699;51.034;3.730;2022-08-20T03:51:37;17.20;99.90
36716;DHT22;22699;51.034;3.730;2022-08-20T03:54:09;17.20;99.90
36716;DHT22;22699;51.034;3.730;2022-08-20T03:56:37;17.20;99.90
36716;DHT22;22699;51.034;3.730;2022-08-20T03:59:34;17.20;99.90
36716;DHT22;22699;51.034;3.730;2022-08-20T04:02:40;17.10;99.90
36716;DHT22;22699;51.034;3.730;2022-08-20T04:08:51;17.10;99.90
36716;DHT22;22699;51.034;3.730;2022-08-20T04:40:35;16.70;99.90
36716;DHT22;22699;51.034;3.730;2022-08-20T04:47:08;16.60;99.90
36716;DHT22;22699;51.034;3.730;2022-08-20T04:50:34;16.80;99.90
36716;DHT22;22699;51.034;3.730;2022-08-20T05:00:51;16.60;99.90
36716;DHT22;22699;51.034;3.730;2022-08-20T05:17:23;16.70;99.90
36716;DHT22;22699;51.034;3.730;2022-08-20T05:20:39;16.70;99.90
36716;DHT22;22699;51.034;3.730;2022-08-20T05:26:31;16.60;99.90
36716;DHT22;22699;51.034;3.730;2022-08-20T05:29:19;16.70;99.90
36716;DHT22;22699;51.034;3.730;2022-08-20T05:35:56;16.90;99.90
36716;DHT22;22699;51.034;3.730;2022-08-20T05:38:58;16.70;99.90
36716;DHT22;22699;51.034;3.730;2022-08-20T05:41:52;16.90;99.90
36716;DHT22;22699;51.034;3.730;2022-08-20T05:44:29;16.90;99.90
36716;DHT22;22699;51.034;3.730;2022-08-20T06:03:07;17.60;99.90
36716;DHT22;22699;51.034;3.730;2022-08-20T06:08:39;17.90;99.90
36716;DHT22;22699;51.034;3.730;2022-08-20T06:14:49;18.00;99.90
36716;DHT22;22699;51.034;3.730;2022-08-20T06:17:18;18.20;99.90
36716;DHT22;22699;51.034;3.730;2022-08-20T06:43:44;19.00;99.90
36716;DHT22;22699;51.034;3.730;2022-08-20T06:46:11;19.10;99.90
36716;DHT22;22699;51.034;3.730;2022-08-20T06:48:37;19.30;99.90
36716;DHT22;22699;51.034;3.730;2022-08-20T06:51:05;19.50;99.90
36716;DHT22;22699;51.034;3.730;2022-08-20T06:53:37;19.80;99.90
36716;DHT22;22699;51.034;3.730;2022-08-20T06:56:12;20.00;99.90
36716;DHT22;22699;51.034;3.730;2022-08-20T06:58:47;19.90;99.90
36716;DHT22;22699;51.034;3.730;2022-08-20T07:01:15;19.50;99.90
36716;DHT22;22699;51.034;3.730;2022-08-20T07:10:17;19.30;99.90
36716;DHT22;22699;51.034;3.730;2022-08-20T07:12:45;19.40;99.90
36716;DHT22;22699;51.034;3.730;2022-08-20T07:15:19;19.50;99.90
36716;DHT22;22699;51.034;3.730;2022-08-20T07:17:56;19.80;99.90
36716;DHT22;22699;51.034;3.730;2022-08-20T07:20:26;19.90;99.90
36716;DHT22;22699;51.034;3.730;2022-08-20T07:22:55;20.10;99.90
36716;DHT22;22699;51.034;3.730;2022-08-20T07:25:23;20.10;99.90
36716;DHT22;22699;51.034;3.730;2022-08-20T07:27:49;20.40;99.90
36716;DHT22;22699;51.034;3.730;2022-08-20T07:30:23;20.50;99.90
36716;DHT22;22699;51.034;3.730;2022-08-20T07:33:10;20.40;99.90
36716;DHT22;22699;51.034;3.730;2022-08-20T07:35:41;20.40;99.90
36716;DHT22;22699;51.034;3.730;2022-08-20T07:38:17;21.00;99.90
36716;DHT22;22699;51.034;3.730;2022-08-20T07:40:48;23.10;99.90
36716;DHT22;22699;51.034;3.730;2022-08-20T07:43:15;25.90;96.80
36716;DHT22;22699;51.034;3.730;2022-08-20T07:45:41;28.30;91.70
36716;DHT22;22699;51.034;3.730;2022-08-20T07:48:11;31.50;83.00
36716;DHT22;22699;51.034;3.730;2022-08-20T07:50:39;34.40;70.20
36716;DHT22;22699;51.034;3.730;2022-08-20T07:53:06;37.10;61.20
36716;DHT22;22699;51.034;3.730;2022-08-20T07:55:32;39.40;55.80
36716;DHT22;22699;51.034;3.730;2022-08-20T07:58:08;41.20;51.10
36716;DHT22;22699;51.034;3.730;2022-08-20T08:00:37;41.90;48.30
36716;DHT22;22699;51.034;3.730;2022-08-20T08:03:04;43.30;45.40
36716;DHT22;22699;51.034;3.730;2022-08-20T08:05:36;43.50;43.80
36716;DHT22;22699;51.034;3.730;2022-08-20T08:08:07;44.90;43.30
36716;DHT22;22699;51.034;3.730;2022-08-20T08:10:34;45.40;42.30
36716;DHT22;22699;51.034;3.730;2022-08-20T08:13:05;46.00;41.10
36716;DHT22;22699;51.034;3.730;2022-08-20T08:15:33;46.30;40.50
36716;DHT22;22699;51.034;3.730;2022-08-20T08:18:04;47.00;40.10
36716;DHT22;22699;51.034;3.730;2022-08-20T08:20:39;48.00;38.80
36716;DHT22;22699;51.034;3.730;2022-08-20T08:23:08;48.50;38.60
36716;DHT22;22699;51.034;3.730;2022-08-20T08:25:37;48.90;37.70
36716;DHT22;22699;51.034;3.730;2022-08-20T08:28:04;50.00;36.30
36716;DHT22;22699;51.034;3.730;2022-08-20T08:30:31;50.80;35.40
36716;DHT22;22699;51.034;3.730;2022-08-20T08:33:00;50.90;34.70
36716;DHT22;22699;51.034;3.730;2022-08-20T08:35:47;49.10;35.00
36716;DHT22;22699;51.034;3.730;2022-08-20T08:38:13;46.50;36.50
36716;DHT22;22699;51.034;3.730;2022-08-20T08:40:42;45.30;37.00
36716;DHT22;22699;51.034;3.730;2022-08-20T08:43:10;46.50;37.40
36716;DHT22;22699;51.034;3.730;2022-08-20T08:48:11;46.80;36.00
36716;DHT22;22699;51.034;3.730;2022-08-20T08:50:44;45.90;36.30
36716;DHT22;22699;51.034;3.730;2022-08-20T08:53:21;47.10;36.70
36716;DHT22;22699;51.034;3.730;2022-08-20T08:55:49;46.00;36.30
36716;DHT22;22699;51.034;3.730;2022-08-20T08:58:18;45.10;35.30
36716;DHT22;22699;51.034;3.730;2022-08-20T09:00:43;45.00;34.90
36716;DHT22;22699;51.034;3.730;2022-08-20T09:03:23;42.40;36.00
36716;DHT22;22699;51.034;3.730;2022-08-20T09:05:55;38.80;39.10
36716;DHT22;22699;51.034;3.730;2022-08-20T09:08:27;36.00;42.00
36716;DHT22;22699;51.034;3.730;2022-08-20T09:11:00;33.70;45.30
36716;DHT22;22699;51.034;3.730;2022-08-20T09:13:28;34.70;45.20
36716;DHT22;22699;51.034;3.730;2022-08-20T09:15:54;34.30;44.70
36716;DHT22;22699;51.034;3.730;2022-08-20T09:18:21;33.20;46.20
36716;DHT22;22699;51.034;3.730;2022-08-20T09:20:48;33.90;46.20
36716;DHT22;22699;51.034;3.730;2022-08-20T09:23:17;35.40;44.50
36716;DHT22;22699;51.034;3.730;2022-08-20T09:25:46;37.10;43.70
36716;DHT22;22699;51.034;3.730;2022-08-20T09:28:15;38.90;42.00
36716;DHT22;22699;51.034;3.730;2022-08-20T09:30:44;37.20;43.00
36716;DHT22;22699;51.034;3.730;2022-08-20T09:33:33;36.00;44.50
36716;DHT22;22699;51.034;3.730;2022-08-20T09:35:59;37.50;43.10
36716;DHT22;22699;51.034;3.730;2022-08-20T09:38:25;39.40;41.00
36716;DHT22;22699;51.034;3.730;2022-08-20T09:40:51;38.20;41.20
36716;DHT22;22699;51.034;3.730;2022-08-20T09:43:20;38.50;41.40
36716;DHT22;22699;51.034;3.730;2022-08-20T09:45:47;39.70;40.70
36716;DHT22;22699;51.034;3.730;2022-08-20T09:48:15;39.50;38.00
36716;DHT22;22699;51.034;3.730;2022-08-20T09:50:48;38.70;39.20
36716;DHT22;22699;51.034;3.730;2022-08-20T09:53:17;38.20;40.00
36716;DHT22;22699;51.034;3.730;2022-08-20T09:55:50;38.90;39.50
36716;DHT22;22699;51.034;3.730;2022-08-20T09:58:31;40.00;39.10
36716;DHT22;22699;51.034;3.730;2022-08-20T10:01:09;41.60;37.90
36716;DHT22;22699;51.034;3.730;2022-08-20T10:03:38;39.20;37.30
36716;DHT22;22699;51.034;3.730;2022-08-20T10:06:05;36.60;39.20
36716;DHT22;22699;51.034;3.730;2022-08-20T10:08:30;33.60;42.00
36716;DHT22;22699;51.034;3.730;2022-08-20T10:10:59;32.40;44.20
36716;DHT22;22699;51.034;3.730;2022-08-20T10:13:27;31.10;47.10
36716;DHT22;22699;51.034;3.730;2022-08-20T10:15:56;30.60;47.50
36716;DHT22;22699;51.034;3.730;2022-08-20T10:18:25;29.80;48.50
36716;DHT22;22699;51.034;3.730;2022-08-20T10:20:51;29.30;47.80
36716;DHT22;22699;51.034;3.730;2022-08-20T10:23:18;29.10;49.00
36716;DHT22;22699;51.034;3.730;2022-08-20T10:25:45;28.30;50.70
36716;DHT22;22699;51.034;3.730;2022-08-20T10:28:11;27.80;51.50
36716;DHT22;22699;51.034;3.730;2022-08-20T10:30:37;27.20;53.00
36716;DHT22;22699;51.034;3.730;2022-08-20T10:33:06;26.90;52.80
36716;DHT22;22699;51.034;3.730;2022-08-20T10:35:31;26.80;52.70
36716;DHT22;22699;51.034;3.730;2022-08-20T10:37:57;26.50;53.80
36716;DHT22;22699;51.034;3.730;2022-08-20T10:40:25;26.40;53.90
36716;DHT22;22699;51.034;3.730;2022-08-20T10:42:51;26.20;54.40
36716;DHT22;22699;51.034;3.730;2022-08-20T10:45:17;26.00;55.40
36716;DHT22;22699;51.034;3.730;2022-08-20T10:47:43;25.50;55.70
36716;DHT22;22699;51.034;3.730;2022-08-20T10:50:11;25.30;56.30
36716;DHT22;22699;51.034;3.730;2022-08-20T10:52:40;25.40;56.50
36716;DHT22;22699;51.034;3.730;2022-08-20T10:55:12;25.40;55.90
36716;DHT22;22699;51.034;3.730;2022-08-20T10:57:40;25.80;55.90
36716;DHT22;22699;51.034;3.730;2022-08-20T11:00:09;26.50;54.80
36716;DHT22;22699;51.034;3.730;2022-08-20T11:02:39;26.70;56.00
36716;DHT22;22699;51.034;3.730;2022-08-20T11:05:05;26.90;56.20
36716;DHT22;22699;51.034;3.730;2022-08-20T11:07:35;27.10;55.90
36716;DHT22;22699;51.034;3.730;2022-08-20T11:10:04;27.20;55.50
36716;DHT22;22699;51.034;3.730;2022-08-20T11:12:34;27.30;55.70
36716;DHT22;22699;51.034;3.730;2022-08-20T11:15:02;27.00;55.40
36716;DHT22;22699;51.034;3.730;2022-08-20T11:17:33;27.00;54.80
36716;DHT22;22699;51.034;3.730;2022-08-20T11:20:00;27.20;55.00
36716;DHT22;22699;51.034;3.730;2022-08-20T11:22:27;27.30;54.30
36716;DHT22;22699;51.034;3.730;2022-08-20T11:24:53;27.20;53.80
36716;DHT22;22699;51.034;3.730;2022-08-20T11:27:39;27.10;54.10
36716;DHT22;22699;51.034;3.730;2022-08-20T11:30:38;27.10;54.30
36716;DHT22;22699;51.034;3.730;2022-08-20T11:33:06;27.10;53.70
36716;DHT22;22699;51.034;3.730;2022-08-20T11:35:35;26.90;54.20
36716;DHT22;22699;51.034;3.730;2022-08-20T11:38:02;26.50;55.20
36716;DHT22;22699;51.034;3.730;2022-08-20T11:40:29;26.30;54.70
36716;DHT22;22699;51.034;3.730;2022-08-20T11:43:03;26.40;55.10
36716;DHT22;22699;51.034;3.730;2022-08-20T11:45:29;26.40;55.00
36716;DHT22;22699;51.034;3.730;2022-08-20T11:47:57;26.60;54.40
36716;DHT22;22699;51.034;3.730;2022-08-20T11:50:28;26.70;55.20
36716;DHT22;22699;51.034;3.730;2022-08-20T11:52:56;26.90;54.10
36716;DHT22;22699;51.034;3.730;2022-08-20T11:55:30;27.00;55.00
36716;DHT22;22699;51.034;3.730;2022-08-20T11:58:15;26.80;54.30
36716;DHT22;22699;51.034;3.730;2022-08-20T12:00:42;26.70;54.10
36716;DHT22;22699;51.034;3.730;2022-08-20T12:03:10;26.90;53.90
36716;DHT22;22699;51.034;3.730;2022-08-20T12:05:41;27.00;54.00
36716;DHT22;22699;51.034;3.730;2022-08-20T12:08:08;26.50;55.20
36716;DHT22;22699;51.034;3.730;2022-08-20T12:10:38;25.70;55.50
36716;DHT22;22699;51.034;3.730;2022-08-20T12:13:05;25.50;56.00
36716;DHT22;22699;51.034;3.730;2022-08-20T12:15:33;25.40;57.10
36716;DHT22;22699;51.034;3.730;2022-08-20T12:18:06;25.40;57.50
36716;DHT22;22699;51.034;3.730;2022-08-20T12:20:35;25.70;57.20
36716;DHT22;22699;51.034;3.730;2022-08-20T12:23:03;26.20;56.00
36716;DHT22;22699;51.034;3.730;2022-08-20T12:25:31;26.50;55.50
36716;DHT22;22699;51.034;3.730;2022-08-20T12:27:57;26.70;54.90
36716;DHT22;22699;51.034;3.730;2022-08-20T12:30:26;26.60;54.70
36716;DHT22;22699;51.034;3.730;2022-08-20T12:32:53;26.80;53.90
36716;DHT22;22699;51.034;3.730;2022-08-20T12:35:23;26.90;53.70
36716;DHT22;22699;51.034;3.730;2022-08-20T12:37:50;27.10;53.90
36716;DHT22;22699;51.034;3.730;2022-08-20T12:40:24;27.10;54.00
36716;DHT22;22699;51.034;3.730;2022-08-20T12:42:51;27.20;53.80
36716;DHT22;22699;51.034;3.730;2022-08-20T12:45:23;27.30;53.90
36716;DHT22;22699;51.034;3.730;2022-08-20T12:47:48;27.40;54.00
36716;DHT22;22699;51.034;3.730;2022-08-20T12:50:20;27.00;53.80
36716;DHT22;22699;51.034;3.730;2022-08-20T12:52:47;26.90;54.00
36716;DHT22;22699;51.034;3.730;2022-08-20T12:55:18;27.00;53.90
36716;DHT22;22699;51.034;3.730;2022-08-20T12:57:52;27.20;53.80
36716;DHT22;22699;51.034;3.730;2022-08-20T13:00:33;27.50;53.00
36716;DHT22;22699;51.034;3.730;2022-08-20T13:03:01;27.60;52.90
36716;DHT22;22699;51.034;3.730;2022-08-20T13:05:31;27.60;53.20
36716;DHT22;22699;51.034;3.730;2022-08-20T13:07:58;27.50;52.70
36716;DHT22;22699;51.034;3.730;2022-08-20T13:10:31;27.40;52.90
36716;DHT22;22699;51.034;3.730;2022-08-20T13:12:58;27.30;52.50
36716;DHT22;22699;51.034;3.730;2022-08-20T13:15:24;27.20;52.70
36716;DHT22;22699;51.034;3.730;2022-08-20T13:17:55;27.20;53.10
36716;DHT22;22699;51.034;3.730;2022-08-20T13:20:22;27.20;53.50
36716;DHT22;22699;51.034;3.730;2022-08-20T13:22:56;27.10;53.10
36716;DHT22;22699;51.034;3.730;2022-08-20T13:25:23;26.80;53.70
36716;DHT22;22699;51.034;3.730;2022-08-20T13:27:57;26.60;53.10
36716;DHT22;22699;51.034;3.730;2022-08-20T13:30:25;26.50;53.90
36716;DHT22;22699;51.034;3.730;2022-08-20T13:32:52;26.40;54.10
36716;DHT22;22699;51.034;3.730;2022-08-20T13:35:20;26.50;54.30
36716;DHT22;22699;51.034;3.730;2022-08-20T13:37:47;26.40;54.40
36716;DHT22;22699;51.034;3.730;2022-08-20T13:40:16;26.70;54.40
36716;DHT22;22699;51.034;3.730;2022-08-20T13:42:47;26.80;53.90
36716;DHT22;22699;51.034;3.730;2022-08-20T13:45:15;26.30;54.50
36716;DHT22;22699;51.034;3.730;2022-08-20T13:47:52;25.80;55.90
36716;DHT22;22699;51.034;3.730;2022-08-20T13:50:23;25.90;55.60
36716;DHT22;22699;51.034;3.730;2022-08-20T13:52:53;26.00;55.50
36716;DHT22;22699;51.034;3.730;2022-08-20T13:55:22;26.00;55.50
36716;DHT22;22699;51.034;3.730;2022-08-20T13:57:49;26.00;55.10
36716;DHT22;22699;51.034;3.730;2022-08-20T14:00:27;26.10;55.30
36716;DHT22;22699;51.034;3.730;2022-08-20T14:02:55;26.40;54.70
36716;DHT22;22699;51.034;3.730;2022-08-20T14:05:24;26.80;54.10
36716;DHT22;22699;51.034;3.730;2022-08-20T14:07:49;27.00;53.80
36716;DHT22;22699;51.034;3.730;2022-08-20T14:10:19;26.90;53.70
36716;DHT22;22699;51.034;3.730;2022-08-20T14:12:45;27.00;53.60
36716;DHT22;22699;51.034;3.730;2022-08-20T14:15:11;27.00;53.40
36716;DHT22;22699;51.034;3.730;2022-08-20T14:17:41;27.20;52.70
36716;DHT22;22699;51.034;3.730;2022-08-20T14:20:10;27.20;52.80
36716;DHT22;22699;51.034;3.730;2022-08-20T14:22:36;27.00;53.20
36716;DHT22;22699;51.034;3.730;2022-08-20T14:25:09;26.90;53.50
36716;DHT22;22699;51.034;3.730;2022-08-20T14:27:37;26.60;53.70
36716;DHT22;22699;51.034;3.730;2022-08-20T14:30:07;26.50;53.90
36716;DHT22;22699;51.034;3.730;2022-08-20T14:32:36;26.60;53.90
36716;DHT22;22699;51.034;3.730;2022-08-20T14:35:02;26.90;53.40
36716;DHT22;22699;51.034;3.730;2022-08-20T14:37:33;26.60;53.20
36716;DHT22;22699;51.034;3.730;2022-08-20T14:40:02;26.00;54.20
36716;DHT22;22699;51.034;3.730;2022-08-20T14:42:29;26.50;53.30
36716;DHT22;22699;51.034;3.730;2022-08-20T14:44:55;26.50;53.80
36716;DHT22;22699;51.034;3.730;2022-08-20T14:47:27;26.30;54.30
36716;DHT22;22699;51.034;3.730;2022-08-20T14:49:55;26.20;54.80
36716;DHT22;22699;51.034;3.730;2022-08-20T14:52:23;26.30;54.20
36716;DHT22;22699;51.034;3.730;2022-08-20T14:54:52;26.50;53.90
36716;DHT22;22699;51.034;3.730;2022-08-20T14:57:18;26.30;54.50
36716;DHT22;22699;51.034;3.730;2022-08-20T14:59:53;25.90;55.60
36716;DHT22;22699;51.034;3.730;2022-08-20T15:02:19;26.40;54.40
36716;DHT22;22699;51.034;3.730;2022-08-20T15:04:45;26.80;54.40
36716;DHT22;22699;51.034;3.730;2022-08-20T15:07:25;27.10;53.20
36716;DHT22;22699;51.034;3.730;2022-08-20T15:09:54;27.20;52.60
36716;DHT22;22699;51.034;3.730;2022-08-20T15:12:21;27.40;52.30
36716;DHT22;22699;51.034;3.730;2022-08-20T15:14:48;27.20;52.70
36716;DHT22;22699;51.034;3.730;2022-08-20T15:17:27;27.20;52.20
36716;DHT22;22699;51.034;3.730;2022-08-20T15:19:54;26.80;52.80
36716;DHT22;22699;51.034;3.730;2022-08-20T15:22:21;26.70;53.10
36716;DHT22;22699;51.034;3.730;2022-08-20T15:24:49;26.30;54.20
36716;DHT22;22699;51.034;3.730;2022-08-20T15:27:21;26.30;53.90
36716;DHT22;22699;51.034;3.730;2022-08-20T15:29:50;26.40;53.40
36716;DHT22;22699;51.034;3.730;2022-08-20T15:32:18;25.80;55.10
36716;DHT22;22699;51.034;3.730;2022-08-20T15:34:47;25.80;55.00
36716;DHT22;22699;51.034;3.730;2022-08-20T15:37:22;26.20;54.60
36716;DHT22;22699;51.034;3.730;2022-08-20T15:39:50;26.50;53.90
36716;DHT22;22699;51.034;3.730;2022-08-20T15:42:18;26.60;54.00
36716;DHT22;22699;51.034;3.730;2022-08-20T15:44:47;26.60;53.90
36716;DHT22;22699;51.034;3.730;2022-08-20T15:47:35;26.80;53.70
36716;DHT22;22699;51.034;3.730;2022-08-20T15:50:08;27.00;52.60
36716;DHT22;22699;51.034;3.730;2022-08-20T15:52:42;27.00;52.90
36716;DHT22;22699;51.034;3.730;2022-08-20T15:55:14;26.90;52.90
36716;DHT22;22699;51.034;3.730;2022-08-20T16:00:44;26.60;53.80
36716;DHT22;22699;51.034;3.730;2022-08-20T16:06:14;25.70;55.40
36716;DHT22;22699;51.034;3.730;2022-08-20T16:12:30;26.10;55.40
36716;DHT22;22699;51.034;3.730;2022-08-20T16:15:06;26.40;55.20
36716;DHT22;22699;51.034;3.730;2022-08-20T16:17:47;26.20;56.00
36716;DHT22;22699;51.034;3.730;2022-08-20T16:20:25;26.10;56.60
36716;DHT22;22699;51.034;3.730;2022-08-20T16:22:55;25.80;57.60
36716;DHT22;22699;51.034;3.730;2022-08-20T16:25:23;25.80;57.50
36716;DHT22;22699;51.034;3.730;2022-08-20T16:28:09;25.60;57.20
36716;DHT22;22699;51.034;3.730;2022-08-20T16:30:45;25.70;56.80
36716;DHT22;22699;51.034;3.730;2022-08-20T16:33:31;25.70;56.90
36716;DHT22;22699;51.034;3.730;2022-08-20T16:36:34;25.60;57.30
36716;DHT22;22699;51.034;3.730;2022-08-20T16:39:05;25.30;58.30
36716;DHT22;22699;51.034;3.730;2022-08-20T16:41:41;25.30;57.80
36716;DHT22;22699;51.034;3.730;2022-08-20T16:44:34;25.60;57.40
36716;DHT22;22699;51.034;3.730;2022-08-20T16:47:16;25.80;57.00
36716;DHT22;22699;51.034;3.730;2022-08-20T16:52:20;25.70;57.10
36716;DHT22;22699;51.034;3.730;2022-08-20T16:54:47;25.30;58.40
36716;DHT22;22699;51.034;3.730;2022-08-20T16:57:19;25.50;58.20
36716;DHT22;22699;51.034;3.730;2022-08-20T17:02:25;25.40;57.40
36716;DHT22;22699;51.034;3.730;2022-08-20T17:04:53;25.50;57.50
36716;DHT22;22699;51.034;3.730;2022-08-20T17:07:48;25.50;57.60
36716;DHT22;22699;51.034;3.730;2022-08-20T17:15:42;25.30;57.80
36716;DHT22;22699;51.034;3.730;2022-08-20T17:18:31;25.20;58.30
36716;DHT22;22699;51.034;3.730;2022-08-20T17:21:25;25.20;58.10
36716;DHT22;22699;51.034;3.730;2022-08-20T17:24:01;25.10;58.10
36716;DHT22;22699;51.034;3.730;2022-08-20T17:26:49;24.90;58.80
36716;DHT22;22699;51.034;3.730;2022-08-20T17:29:18;24.60;59.60
36716;DHT22;22699;51.034;3.730;2022-08-20T17:32:07;24.50;59.90
36716;DHT22;22699;51.034;3.730;2022-08-20T17:34:47;24.40;60.40
36716;DHT22;22699;51.034;3.730;2022-08-20T17:37:33;24.50;60.20
36716;DHT22;22699;51.034;3.730;2022-08-20T17:40:16;24.60;60.00
36716;DHT22;22699;51.034;3.730;2022-08-20T17:42:56;24.60;59.90
36716;DHT22;22699;51.034;3.730;2022-08-20T17:45:33;24.70;59.80
36716;DHT22;22699;51.034;3.730;2022-08-20T17:48:13;24.90;59.40
36716;DHT22;22699;51.034;3.730;2022-08-20T17:50:53;24.80;59.50
36716;DHT22;22699;51.034;3.730;2022-08-20T17:55:51;24.70;60.10
36716;DHT22;22699;51.034;3.730;2022-08-20T18:00:58;24.80;59.10
36716;DHT22;22699;51.034;3.730;2022-08-20T18:03:27;24.80;59.20
36716;DHT22;22699;51.034;3.730;2022-08-20T18:05:59;24.70;59.70
36716;DHT22;22699;51.034;3.730;2022-08-20T18:08:40;24.70;58.90
36716;DHT22;22699;51.034;3.730;2022-08-20T18:11:33;24.70;59.50
36716;DHT22;22699;51.034;3.730;2022-08-20T18:14:43;24.20;60.30
36716;DHT22;22699;51.034;3.730;2022-08-20T18:20:24;23.70;61.80
36716;DHT22;22699;51.034;3.730;2022-08-20T18:23:02;23.60;62.10
36716;DHT22;22699;51.034;3.730;2022-08-20T18:25:38;23.60;62.40
36716;DHT22;22699;51.034;3.730;2022-08-20T18:28:17;23.70;61.90
36716;DHT22;22699;51.034;3.730;2022-08-20T18:30:56;23.70;62.40
36716;DHT22;22699;51.034;3.730;2022-08-20T18:33:36;23.50;63.00
36716;DHT22;22699;51.034;3.730;2022-08-20T18:36:10;23.40;63.70
36716;DHT22;22699;51.034;3.730;2022-08-20T18:38:38;23.40;63.70
36716;DHT22;22699;51.034;3.730;2022-08-20T18:47:54;23.10;64.70
36716;DHT22;22699;51.034;3.730;2022-08-20T18:53:29;23.20;64.80
36716;DHT22;22699;51.034;3.730;2022-08-20T18:56:07;23.10;65.10
36716;DHT22;22699;51.034;3.730;2022-08-20T18:59:07;23.00;65.60
36716;DHT22;22699;51.034;3.730;2022-08-20T19:01:35;23.20;65.30
36716;DHT22;22699;51.034;3.730;2022-08-20T19:04:19;23.10;65.40
36716;DHT22;22699;51.034;3.730;2022-08-20T19:12:10;22.90;65.60
36716;DHT22;22699;51.034;3.730;2022-08-20T19:14:48;22.90;65.80
36716;DHT22;22699;51.034;3.730;2022-08-20T19:17:29;22.80;65.90
36716;DHT22;22699;51.034;3.730;2022-08-20T19:20:04;22.80;66.10
36716;DHT22;22699;51.034;3.730;2022-08-20T19:22:32;22.80;66.40
36716;DHT22;22699;51.034;3.730;2022-08-20T19:24:59;22.80;66.70
36716;DHT22;22699;51.034;3.730;2022-08-20T19:27:27;22.80;66.90
36716;DHT22;22699;51.034;3.730;2022-08-20T19:29:53;22.60;67.50
36716;DHT22;22699;51.034;3.730;2022-08-20T19:32:30;22.50;67.90
36716;DHT22;22699;51.034;3.730;2022-08-20T19:35:02;22.50;68.40
36716;DHT22;22699;51.034;3.730;2022-08-20T19:37:35;22.50;68.50
36716;DHT22;22699;51.034;3.730;2022-08-20T19:40:06;22.50;68.80
36716;DHT22;22699;51.034;3.730;2022-08-20T19:42:45;22.40;69.30
36716;DHT22;22699;51.034;3.730;2022-08-20T19:45:25;22.30;69.70
36716;DHT22;22699;51.034;3.730;2022-08-20T19:48:01;22.20;70.10
36716;DHT22;22699;51.034;3.730;2022-08-20T19:53:33;22.00;71.70
36716;DHT22;22699;51.034;3.730;2022-08-20T19:56:13;22.00;71.50
36716;DHT22;22699;51.034;3.730;2022-08-20T19:58:40;21.90;71.70
36716;DHT22;22699;51.034;3.730;2022-08-20T20:01:19;21.90;72.00
36716;DHT22;22699;51.034;3.730;2022-08-20T20:04:05;21.90;72.40
36716;DHT22;22699;51.034;3.730;2022-08-20T20:06:47;21.80;72.20
36716;DHT22;22699;51.034;3.730;2022-08-20T20:09:25;21.80;72.30
36716;DHT22;22699;51.034;3.730;2022-08-20T20:11:55;21.70;72.80